Time;durP1;ratioP1;P1;durP2;ratioP2;P2;SDS_P1;SDS_P2;PMS_P1;PMS_P2;Temp;Humidity;BMP_temperature;BMP_pressure;BME280_temperature;BME280_humidity;BME280_pressure;Samples;Min_cycle;Max_cycle;Signal;HPM_P1;HPM_P2
2021/12/28 00:01:21;;;;;;;44.38;25.02;;;;;;;;;;5058621;27;92698;-71
2021/12/28 00:03:48;;;;;;;59.05;25.30;;;;;;;;;;5057210;27;94759;-72
2021/12/28 00:06:15;;;;;;;47.63;24.98;;;;;;;;;;5058460;27;95672;-71
2021/12/28 00:08:42;;;;;;;48.47;25.02;;;;;;;;;;5058439;27;93562;-71
2021/12/28 00:11:08;;;;;;;44.90;24.75;;;;;;;;;;5057969;27;92352;-71
2021/12/28 00:13:36;;;;;;;60.33;26.38;;;;;;;;;;5061617;27;93479;-72
2021/12/28 00:18:33;;;;;;;52.20;24.98;;;;;;;;;;5058659;27;93324;-71
2021/12/28 00:21:00;;;;;;;54.33;24.90;;;;;;;;;;5058903;27;92853;-70
2021/12/28 00:23:35;;;;;;;49.03;24.27;;;;;;;;;;5058118;27;92350;-71
2021/12/28 00:26:02;;;;;;;41.22;23.58;;;;;;;;;;5040211;27;94502;-71
2021/12/28 00:28:29;;;;;;;57.80;23.92;;;;;;;;;;5056459;27;95819;-71
2021/12/28 00:30:56;;;;;;;48.53;22.75;;;;;;;;;;5040141;27;92308;-71
2021/12/28 00:33:23;;;;;;;41.78;22.92;;;;;;;;;;5058126;27;93416;-71
2021/12/28 00:35:50;;;;;;;43.10;21.73;;;;;;;;;;5061064;27;94233;-71
2021/12/28 00:38:19;;;;;;;53.10;21.80;;;;;;;;;;5057866;27;93541;-71
2021/12/28 00:40:46;;;;;;;45.47;21.02;;;;;;;;;;5057990;27;93898;-71
2021/12/28 00:43:13;;;;;;;37.15;19.98;;;;;;;;;;5058131;27;92357;-71
2021/12/28 00:45:39;;;;;;;43.97;19.77;;;;;;;;;;5058648;27;93304;-71
2021/12/28 00:48:05;;;;;;;46.55;18.40;;;;;;;;;;5057807;27;93568;-71
2021/12/28 00:50:32;;;;;;;44.85;19.60;;;;;;;;;;5057496;27;92408;-72
2021/12/28 00:52:58;;;;;;;41.65;18.90;;;;;;;;;;5056558;27;94673;-71
2021/12/28 00:55:25;;;;;;;44.90;19.10;;;;;;;;;;5057573;27;93546;-70
2021/12/28 00:57:52;;;;;;;39.13;17.75;;;;;;;;;;5043316;27;92477;-70
2021/12/28 01:00:21;;;;;;;40.25;18.00;;;;;;;;;;5057716;27;93799;-71
2021/12/28 01:02:47;;;;;;;35.80;17.95;;;;;;;;;;5057795;27;92404;-71
2021/12/28 01:05:14;;;;;;;41.03;16.90;;;;;;;;;;5057299;27;93011;-71
2021/12/28 01:07:43;;;;;;;37.80;17.38;;;;;;;;;;5057528;27;93258;-71
2021/12/28 01:10:12;;;;;;;35.83;17.25;;;;;;;;;;5058147;27;91758;-71
2021/12/28 01:12:39;;;;;;;44.30;16.98;;;;;;;;;;5057522;27;93106;-71
2021/12/28 01:15:08;;;;;;;42.42;15.50;;;;;;;;;;5057251;27;92957;-71
2021/12/28 01:17:35;;;;;;;40.67;15.20;;;;;;;;;;5055756;27;94792;-72
2021/12/28 01:20:01;;;;;;;31.25;14.60;;;;;;;;;;5060220;27;94789;-70
2021/12/28 01:22:28;;;;;;;47.80;15.05;;;;;;;;;;5057657;27;92492;-71
2021/12/28 01:24:54;;;;;;;35.03;14.18;;;;;;;;;;5057327;27;93744;-70
2021/12/28 01:27:20;;;;;;;40.92;14.50;;;;;;;;;;5057128;27;93527;-70
2021/12/28 01:29:47;;;;;;;32.08;13.35;;;;;;;;;;5039576;27;92419;-71
2021/12/28 01:32:14;;;;;;;32.92;12.82;;;;;;;;;;5039617;27;93741;-71
2021/12/28 01:34:40;;;;;;;47.63;13.63;;;;;;;;;;5056887;27;92935;-71
2021/12/28 01:37:07;;;;;;;39.58;13.57;;;;;;;;;;5057403;27;92203;-70
2021/12/28 01:39:34;;;;;;;28.75;12.27;;;;;;;;;;5060437;27;93651;-70
2021/12/28 01:42:04;;;;;;;35.28;12.45;;;;;;;;;;5055613;27;94573;-70
2021/12/28 01:44:30;;;;;;;34.75;11.90;;;;;;;;;;5056906;27;96319;-71
2021/12/28 01:46:57;;;;;;;33.90;12.40;;;;;;;;;;5056615;27;93720;-71
2021/12/28 01:49:24;;;;;;;31.88;12.05;;;;;;;;;;5056937;27;92599;-70
2021/12/28 01:51:51;;;;;;;34.50;12.00;;;;;;;;;;5056979;27;93437;-72
2021/12/28 01:54:18;;;;;;;34.70;11.43;;;;;;;;;;5056930;27;94122;-71
2021/12/28 01:56:45;;;;;;;29.35;11.43;;;;;;;;;;5056979;27;92393;-71
2021/12/28 01:59:14;;;;;;;27.73;11.60;;;;;;;;;;5057284;27;92451;-70
2021/12/28 02:01:41;;;;;;;31.92;11.75;;;;;;;;;;5059438;27;93176;-70
2021/12/28 02:04:16;;;;;;;28.98;10.48;;;;;;;;;;5056870;27;93519;-70
2021/12/28 02:06:43;;;;;;;34.05;11.90;;;;;;;;;;5055189;27;96037;-70
2021/12/28 02:09:09;;;;;;;32.45;10.48;;;;;;;;;;5056597;27;92263;-70
2021/12/28 02:11:37;;;;;;;35.17;10.50;;;;;;;;;;5068185;27;93358;-70
2021/12/28 02:14:06;;;;;;;37.97;10.13;;;;;;;;;;5096820;27;93784;-70
2021/12/28 02:16:36;;;;;;;36.17;10.63;;;;;;;;;;5097896;27;92479;-70
2021/12/28 02:19:03;;;;;;;38.00;10.45;;;;;;;;;;5097511;27;93468;-70
2021/12/28 02:21:32;;;;;;;36.75;10.65;;;;;;;;;;5097411;27;93591;-70
2021/12/28 02:24:00;;;;;;;33.92;10.60;;;;;;;;;;5101177;27;91729;-70
2021/12/28 02:26:26;;;;;;;41.50;10.23;;;;;;;;;;5097439;27;93211;-70
2021/12/28 02:28:53;;;;;;;43.10;10.75;;;;;;;;;;5097381;27;92488;-70
2021/12/28 02:31:19;;;;;;;36.33;10.70;;;;;;;;;;5096127;27;94644;-70
2021/12/28 02:33:48;;;;;;;33.97;10.27;;;;;;;;;;5097448;27;93661;-69
2021/12/28 02:36:15;;;;;;;41.05;10.75;;;;;;;;;;5097369;27;92430;-70
2021/12/28 02:38:43;;;;;;;33.30;9.40;;;;;;;;;;5097309;27;93587;-69
2021/12/28 02:41:10;;;;;;;34.92;10.07;;;;;;;;;;5097683;27;93125;-70
2021/12/28 02:43:38;;;;;;;32.60;10.10;;;;;;;;;;5097430;27;92132;-70
2021/12/28 02:46:05;;;;;;;39.13;9.40;;;;;;;;;;5095394;27;93077;-70
2021/12/28 02:48:32;;;;;;;34.63;9.25;;;;;;;;;;5102450;27;91684;-70
2021/12/28 02:51:04;;;;;;;40.65;10.65;;;;;;;;;;5106675;27;92449;-71
2021/12/28 02:53:30;;;;;;;31.85;9.40;;;;;;;;;;5109419;27;93646;-70
2021/12/28 02:55:57;;;;;;;34.75;9.68;;;;;;;;;;5107454;27;94750;-70
2021/12/28 02:58:31;;;;;;;40.45;10.73;;;;;;;;;;5107668;27;94847;-70
2021/12/28 03:01:13;;;;;;;32.85;8.73;;;;;;;;;;5086015;27;93489;-70
2021/12/28 03:03:42;;;;;;;31.90;8.43;;;;;;;;;;5104624;27;92256;-70
2021/12/28 03:06:10;;;;;;;32.67;8.77;;;;;;;;;;5102905;27;92751;-70
2021/12/28 03:08:38;;;;;;;37.05;8.77;;;;;;;;;;5104600;27;93501;-70
2021/12/28 03:11:05;;;;;;;43.22;9.35;;;;;;;;;;5101444;27;93522;-70
2021/12/28 03:13:34;;;;;;;24.50;8.50;;;;;;;;;;5101680;27;92250;-69
2021/12/28 03:16:00;;;;;;;32.70;8.93;;;;;;;;;;5082991;27;92400;-70
2021/12/28 03:18:27;;;;;;;40.15;9.25;;;;;;;;;;5101294;27;93351;-70
2021/12/28 03:20:53;;;;;;;29.95;8.57;;;;;;;;;;5099208;27;95351;-70
2021/12/28 03:23:22;;;;;;;37.72;9.25;;;;;;;;;;5101256;27;92276;-69
2021/12/28 03:25:49;;;;;;;39.42;9.48;;;;;;;;;;5101303;27;93228;-70
2021/12/28 03:28:20;;;;;;;35.55;9.02;;;;;;;;;;5101080;27;93644;-70
2021/12/28 03:30:47;;;;;;;44.17;9.57;;;;;;;;;;5104426;27;92130;-70
2021/12/28 03:33:14;;;;;;;27.95;7.93;;;;;;;;;;5100842;27;93495;-70
2021/12/28 03:35:41;;;;;;;35.33;8.75;;;;;;;;;;5100678;27;92282;-70
2021/12/28 03:38:07;;;;;;;31.75;8.57;;;;;;;;;;5101368;27;92919;-70
2021/12/28 03:40:34;;;;;;;37.45;8.38;;;;;;;;;;5100665;27;93723;-71
2021/12/28 03:43:00;;;;;;;33.85;8.30;;;;;;;;;;5082352;27;92716;-70
2021/12/28 03:45:26;;;;;;;29.58;7.60;;;;;;;;;;5099404;27;94786;-71
2021/12/28 03:47:53;;;;;;;37.47;8.82;;;;;;;;;;5100237;27;93037;-70
2021/12/28 03:50:19;;;;;;;35.13;9.32;;;;;;;;;;5103986;27;92356;-71
2021/12/28 03:52:46;;;;;;;37.20;8.48;;;;;;;;;;5100610;27;93588;-71
2021/12/28 03:55:13;;;;;;;27.90;7.53;;;;;;;;;;5100896;27;92422;-70
2021/12/28 03:57:39;;;;;;;46.38;9.48;;;;;;;;;;5100279;27;93561;-71
2021/12/28 04:00:08;;;;;;;24.65;7.53;;;;;;;;;;5100429;27;93666;-70
2021/12/28 04:02:34;;;;;;;36.67;7.88;;;;;;;;;;5100709;27;92438;-71
2021/12/28 04:05:01;;;;;;;25.20;8.38;;;;;;;;;;5100657;27;92677;-70
2021/12/28 04:07:28;;;;;;;33.17;7.55;;;;;;;;;;5100386;27;93688;-71
2021/12/28 04:12:22;;;;;;;34.72;7.80;;;;;;;;;;5103299;27;95818;-70
2021/12/28 04:14:48;;;;;;;34.17;7.28;;;;;;;;;;5100181;27;92661;-70
2021/12/28 04:17:15;;;;;;;31.38;7.22;;;;;;;;;;5081298;27;95135;-71
2021/12/28 04:19:41;;;;;;;30.83;7.03;;;;;;;;;;5100158;27;92927;-70
2021/12/28 04:22:08;;;;;;;37.17;7.88;;;;;;;;;;5100373;27;92208;-71
2021/12/28 04:24:34;;;;;;;33.40;6.63;;;;;;;;;;5100225;27;93402;-71
2021/12/28 04:27:20;;;;;;;30.70;7.00;;;;;;;;;;5100644;27;92119;-70
2021/12/28 04:29:47;;;;;;;26.58;6.88;;;;;;;;;;5099756;27;92360;-70
2021/12/28 04:32:13;;;;;;;26.75;6.55;;;;;;;;;;5100238;27;93563;-70
2021/12/28 04:34:39;;;;;;;35.63;7.32;;;;;;;;;;5101448;27;96057;-70
2021/12/28 04:37:06;;;;;;;30.63;6.55;;;;;;;;;;5099882;27;95849;-70
2021/12/28 04:39:35;;;;;;;32.58;6.72;;;;;;;;;;5099921;27;93462;-71
2021/12/28 04:42:02;;;;;;;32.20;6.60;;;;;;;;;;5099654;27;92279;-71
2021/12/28 04:44:28;;;;;;;36.15;6.82;;;;;;;;;;5099634;27;93536;-70
2021/12/28 04:46:55;;;;;;;38.70;6.95;;;;;;;;;;5099717;27;93491;-70
2021/12/28 04:49:24;;;;;;;28.33;7.20;;;;;;;;;;5099901;27;92366;-71
2021/12/28 04:51:50;;;;;;;35.63;6.95;;;;;;;;;;5100288;27;93458;-70
2021/12/28 04:54:18;;;;;;;30.73;7.13;;;;;;;;;;5099740;27;93723;-70
2021/12/28 04:56:45;;;;;;;39.60;7.28;;;;;;;;;;5102591;27;92287;-70
2021/12/28 04:59:15;;;;;;;41.28;8.25;;;;;;;;;;5097826;27;96013;-70
2021/12/28 05:01:42;;;;;;;27.45;6.22;;;;;;;;;;5099703;27;92283;-70
2021/12/28 05:04:09;;;;;;;31.02;6.70;;;;;;;;;;5099643;27;93511;-70
2021/12/28 05:06:35;;;;;;;23.00;6.57;;;;;;;;;;5099567;27;93164;-71
2021/12/28 05:09:04;;;;;;;21.90;6.60;;;;;;;;;;5098428;27;92383;-71
2021/12/28 05:11:31;;;;;;;24.08;6.43;;;;;;;;;;5099168;27;93340;-71
2021/12/28 05:13:57;;;;;;;28.50;6.65;;;;;;;;;;5098767;27;93667;-70
2021/12/28 05:16:28;;;;;;;35.38;6.70;;;;;;;;;;5100043;27;91481;-70
2021/12/28 05:18:54;;;;;;;26.55;6.57;;;;;;;;;;5102383;27;92699;-70
2021/12/28 05:21:21;;;;;;;25.55;6.03;;;;;;;;;;5099410;27;92155;-71
2021/12/28 05:23:47;;;;;;;25.13;6.03;;;;;;;;;;5097485;27;94675;-72
2021/12/28 05:26:13;;;;;;;24.80;5.95;;;;;;;;;;5080534;27;96109;-71
2021/12/28 05:28:40;;;;;;;21.13;5.38;;;;;;;;;;5099294;27;92148;-70
2021/12/28 05:31:07;;;;;;;28.95;6.32;;;;;;;;;;5099230;27;93320;-70
2021/12/28 05:33:33;;;;;;;28.48;6.75;;;;;;;;;;5099235;27;93892;-71
2021/12/28 05:36:00;;;;;;;26.13;5.57;;;;;;;;;;5099133;27;92419;-70
2021/12/28 05:38:26;;;;;;;27.52;5.60;;;;;;;;;;5098870;27;93508;-70
2021/12/28 05:40:52;;;;;;;25.80;5.95;;;;;;;;;;5084402;27;93622;-70
2021/12/28 05:43:19;;;;;;;30.13;5.90;;;;;;;;;;5099114;27;92811;-70
2021/12/28 05:45:45;;;;;;;30.20;5.78;;;;;;;;;;5098965;27;92753;-70
2021/12/28 05:48:12;;;;;;;24.90;6.60;;;;;;;;;;5097322;27;94541;-71
2021/12/28 05:50:38;;;;;;;21.38;5.88;;;;;;;;;;5098825;27;95803;-71
2021/12/28 05:53:05;;;;;;;25.95;5.50;;;;;;;;;;5098282;27;93871;-71
2021/12/28 05:55:32;;;;;;;23.52;5.20;;;;;;;;;;5099047;27;92187;-71
2021/12/28 05:57:58;;;;;;;20.20;5.05;;;;;;;;;;5098883;27;94240;-70
2021/12/28 06:00:28;;;;;;;25.75;5.00;;;;;;;;;;5101842;27;93349;-71
2021/12/28 06:02:58;;;;;;;24.38;5.38;;;;;;;;;;5098685;27;93370;-70
2021/12/28 06:05:25;;;;;;;21.80;5.22;;;;;;;;;;5099184;27;91483;-71
2021/12/28 06:07:51;;;;;;;17.55;4.65;;;;;;;;;;5098413;27;92388;-71
2021/12/28 06:10:18;;;;;;;18.83;4.95;;;;;;;;;;5098886;27;92939;-71
2021/12/28 06:12:44;;;;;;;25.45;5.38;;;;;;;;;;5096718;27;96148;-70
2021/12/28 06:15:12;;;;;;;24.25;5.20;;;;;;;;;;5098199;27;92547;-70
2021/12/28 06:17:38;;;;;;;24.67;5.35;;;;;;;;;;5098719;27;93350;-71
2021/12/28 06:20:05;;;;;;;19.58;4.60;;;;;;;;;;5098990;27;93594;-71
2021/12/28 06:22:32;;;;;;;17.02;4.93;;;;;;;;;;5105177;27;92220;-71
2021/12/28 06:24:58;;;;;;;19.88;4.50;;;;;;;;;;5102014;27;92938;-71
2021/12/28 06:27:24;;;;;;;21.08;4.95;;;;;;;;;;5102256;27;92373;-71
2021/12/28 06:29:54;;;;;;;22.92;4.43;;;;;;;;;;5102591;27;93444;-71
2021/12/28 06:32:21;;;;;;;16.45;3.78;;;;;;;;;;5101871;27;93660;-71
2021/12/28 06:34:47;;;;;;;23.48;4.93;;;;;;;;;;5101840;27;92233;-70
2021/12/28 06:37:13;;;;;;;26.40;4.75;;;;;;;;;;5100396;27;94653;-71
2021/12/28 06:39:40;;;;;;;15.88;4.45;;;;;;;;;;5101750;27;93678;-71
2021/12/28 06:42:06;;;;;;;18.10;4.63;;;;;;;;;;5101895;27;92366;-71
2021/12/28 06:44:33;;;;;;;22.75;4.55;;;;;;;;;;5104831;27;93317;-71
2021/12/28 06:46:59;;;;;;;19.80;4.25;;;;;;;;;;5101820;27;93102;-71
2021/12/28 06:49:25;;;;;;;18.23;4.72;;;;;;;;;;5101349;27;93556;-71
2021/12/28 06:51:52;;;;;;;15.07;4.03;;;;;;;;;;5083138;27;93757;-71
2021/12/28 06:54:18;;;;;;;14.32;4.18;;;;;;;;;;5102151;27;91582;-71
2021/12/28 06:56:44;;;;;;;17.92;3.83;;;;;;;;;;5101733;27;92952;-70
2021/12/28 06:59:11;;;;;;;20.67;3.90;;;;;;;;;;5101318;27;93743;-71
2021/12/28 07:01:37;;;;;;;23.90;5.20;;;;;;;;;;5099988;27;94544;-71
2021/12/28 07:04:04;;;;;;;21.42;4.25;;;;;;;;;;5101061;27;95857;-70
2021/12/28 07:06:30;;;;;;;16.60;3.88;;;;;;;;;;5104560;27;93601;-70
2021/12/28 07:08:57;;;;;;;23.10;4.38;;;;;;;;;;5101520;27;93564;-71
2021/12/28 07:11:23;;;;;;;15.20;3.80;;;;;;;;;;5101244;27;93584;-70
2021/12/28 07:13:49;;;;;;;20.05;4.47;;;;;;;;;;5100824;27;92439;-71
2021/12/28 07:16:16;;;;;;;12.70;3.72;;;;;;;;;;5101396;27;93847;-71
2021/12/28 07:18:42;;;;;;;17.10;3.35;;;;;;;;;;5101316;27;92720;-71
2021/12/28 07:21:08;;;;;;;24.52;4.68;;;;;;;;;;5100918;27;92233;-70
2021/12/28 07:23:35;;;;;;;22.65;4.43;;;;;;;;;;5101300;27;93462;-71
2021/12/28 07:26:01;;;;;;;17.63;4.20;;;;;;;;;;5099195;27;96397;-70
2021/12/28 07:28:27;;;;;;;15.32;3.63;;;;;;;;;;5104555;27;92242;-71
2021/12/28 07:30:54;;;;;;;15.27;3.85;;;;;;;;;;5106510;27;93631;-73
2021/12/28 07:33:21;;;;;;;14.68;3.88;;;;;;;;;;5107538;27;92311;-71
2021/12/28 07:35:48;;;;;;;15.30;3.92;;;;;;;;;;5088551;27;95539;-69
2021/12/28 07:38:14;;;;;;;15.02;4.32;;;;;;;;;;5087240;27;92682;-70
2021/12/28 07:40:40;;;;;;;18.80;3.97;;;;;;;;;;5102797;27;93971;-73
2021/12/28 07:43:07;;;;;;;12.02;3.65;;;;;;;;;;5101673;27;93391;-71
2021/12/28 07:45:33;;;;;;;12.63;3.80;;;;;;;;;;5101179;27;93591;-71
2021/12/28 07:47:59;;;;;;;13.73;4.13;;;;;;;;;;5100387;27;92298;-71
2021/12/28 07:50:26;;;;;;;11.18;4.35;;;;;;;;;;5102267;27;94669;-74
2021/12/28 07:52:55;;;;;;;10.52;3.72;;;;;;;;;;5100992;27;92249;-72
2021/12/28 07:55:21;;;;;;;16.40;4.80;;;;;;;;;;5100678;27;92916;-72
2021/12/28 07:57:48;;;;;;;27.55;4.68;;;;;;;;;;5100434;27;93637;-72
2021/12/28 08:00:15;;;;;;;16.30;5.63;;;;;;;;;;5100330;27;92275;-72
2021/12/28 08:02:43;;;;;;;16.52;4.85;;;;;;;;;;5100093;27;93345;-71
2021/12/28 08:05:11;;;;;;;15.63;5.15;;;;;;;;;;5100020;27;93546;-72
2021/12/28 08:07:37;;;;;;;15.20;4.80;;;;;;;;;;5100871;27;91613;-71
2021/12/28 08:10:04;;;;;;;19.23;5.97;;;;;;;;;;5103485;27;92877;-71
2021/12/28 08:12:31;;;;;;;12.25;5.60;;;;;;;;;;5100354;27;92251;-71
2021/12/28 08:14:57;;;;;;;17.70;5.65;;;;;;;;;;5098049;27;94680;-73
2021/12/28 08:17:25;;;;;;;14.52;5.68;;;;;;;;;;5099974;27;93585;-71
2021/12/28 08:19:51;;;;;;;18.70;5.88;;;;;;;;;;5100208;27;92366;-71
2021/12/28 08:22:18;;;;;;;11.57;6.30;;;;;;;;;;5100092;27;93420;-71
2021/12/28 08:24:44;;;;;;;16.75;6.50;;;;;;;;;;5099905;27;93658;-71
2021/12/28 08:27:11;;;;;;;16.98;6.57;;;;;;;;;;5100183;27;92243;-71
2021/12/28 08:29:37;;;;;;;21.13;6.80;;;;;;;;;;5096036;27;99410;-71
2021/12/28 08:32:06;;;;;;;18.95;6.78;;;;;;;;;;5099473;27;98867;-70
2021/12/28 08:34:33;;;;;;;18.90;6.53;;;;;;;;;;5095845;27;98767;-71
2021/12/28 08:36:59;;;;;;;16.95;6.13;;;;;;;;;;5095443;27;99799;-71
2021/12/28 08:39:25;;;;;;;19.20;6.07;;;;;;;;;;5095338;27;99149;-71
2021/12/28 08:41:52;;;;;;;16.25;5.88;;;;;;;;;;5095695;27;100283;-71
2021/12/28 08:44:18;;;;;;;12.77;6.40;;;;;;;;;;5094841;27;99913;-72
2021/12/28 08:46:45;;;;;;;18.90;6.03;;;;;;;;;;5095838;27;98464;-70
2021/12/28 08:49:13;;;;;;;12.15;6.50;;;;;;;;;;5095475;27;99366;-72
2021/12/28 08:51:40;;;;;;;13.90;6.22;;;;;;;;;;5095119;27;99875;-70
2021/12/28 08:54:08;;;;;;;14.40;6.78;;;;;;;;;;5098937;27;98431;-71
2021/12/28 08:56:34;;;;;;;11.85;7.10;;;;;;;;;;5068729;27;98731;-71
2021/12/28 08:59:00;;;;;;;14.05;5.88;;;;;;;;;;5053652;27;98412;-72
2021/12/28 09:01:27;;;;;;;15.93;6.72;;;;;;;;;;5054430;27;99432;-71
2021/12/28 09:03:54;;;;;;;13.80;6.97;;;;;;;;;;5053325;27;100543;-70
2021/12/28 09:06:20;;;;;;;12.10;6.40;;;;;;;;;;5054501;27;98472;-71
2021/12/28 09:08:46;;;;;;;17.23;6.53;;;;;;;;;;5036593;27;99501;-73
2021/12/28 09:11:13;;;;;;;13.18;6.53;;;;;;;;;;5053572;27;99900;-74
2021/12/28 09:13:39;;;;;;;11.20;6.68;;;;;;;;;;5053875;27;98381;-72
2021/12/28 09:16:06;;;;;;;10.52;6.65;;;;;;;;;;5056709;27;99026;-72
2021/12/28 09:18:32;;;;;;;10.65;5.95;;;;;;;;;;5054058;27;98449;-72
2021/12/28 09:20:59;;;;;;;14.55;6.78;;;;;;;;;;5054347;27;100245;-72
2021/12/28 09:23:25;;;;;;;10.50;6.75;;;;;;;;;;5053702;27;99544;-72
2021/12/28 09:26:11;;;;;;;13.90;7.00;;;;;;;;;;5053678;27;98360;-70
2021/12/28 09:28:38;;;;;;;11.13;7.38;;;;;;;;;;5053427;27;99500;-70
2021/12/28 09:31:05;;;;;;;13.18;7.47;;;;;;;;;;5053565;27;99617;-71
2021/12/28 09:33:31;;;;;;;14.88;8.00;;;;;;;;;;5054090;27;98998;-71
2021/12/28 09:36:00;;;;;;;11.88;7.93;;;;;;;;;;5053898;27;99323;-71
2021/12/28 09:38:27;;;;;;;14.88;7.97;;;;;;;;;;5056418;27;99230;-71
2021/12/28 09:40:53;;;;;;;19.80;9.18;;;;;;;;;;5053414;27;101135;-70
2021/12/28 09:43:20;;;;;;;14.07;8.15;;;;;;;;;;5053319;27;99979;-71
2021/12/28 09:45:46;;;;;;;10.82;8.38;;;;;;;;;;5054315;27;97628;-71
2021/12/28 09:48:12;;;;;;;10.43;8.02;;;;;;;;;;5053635;27;98715;-72
2021/12/28 09:50:40;;;;;;;12.27;8.27;;;;;;;;;;5053189;27;99458;-71
2021/12/28 09:53:07;;;;;;;12.13;7.75;;;;;;;;;;5052674;27;99947;-71
2021/12/28 09:55:34;;;;;;;11.57;7.57;;;;;;;;;;5053112;27;100523;-72
2021/12/28 09:58:00;;;;;;;12.30;7.57;;;;;;;;;;5053275;27;99828;-72
2021/12/28 10:00:27;;;;;;;11.27;7.28;;;;;;;;;;5056748;27;98773;-72
2021/12/28 10:03:11;;;;;;;10.48;7.57;;;;;;;;;;5053176;27;98371;-72
2021/12/28 10:05:38;;;;;;;9.75;7.15;;;;;;;;;;5053256;27;98306;-72
2021/12/28 10:08:05;;;;;;;9.50;7.57;;;;;;;;;;5053650;27;98782;-73
2021/12/28 10:10:40;;;;;;;8.80;7.80;;;;;;;;;;5053511;27;98934;-72
2021/12/28 10:13:07;;;;;;;16.65;8.82;;;;;;;;;;5053275;27;98487;-72
2021/12/28 10:15:35;;;;;;;9.15;8.15;;;;;;;;;;5052822;27;99705;-72
2021/12/28 10:18:06;;;;;;;8.57;7.78;;;;;;;;;;5052141;27;100569;-72
2021/12/28 10:20:43;;;;;;;9.43;7.78;;;;;;;;;;5056728;27;98329;-71
2021/12/28 10:23:11;;;;;;;9.75;8.35;;;;;;;;;;5052848;27;99165;-71
2021/12/28 10:25:40;;;;;;;10.63;8.38;;;;;;;;;;5052914;27;98442;-72
2021/12/28 10:28:09;;;;;;;10.77;8.38;;;;;;;;;;5053231;27;99750;-71
2021/12/28 10:30:43;;;;;;;12.77;8.07;;;;;;;;;;5052334;27;99571;-72
2021/12/28 10:33:20;;;;;;;10.80;7.53;;;;;;;;;;5053296;27;98457;-71
2021/12/28 10:35:48;;;;;;;10.32;7.93;;;;;;;;;;5053434;27;99588;-71
2021/12/28 10:38:16;;;;;;;9.38;8.20;;;;;;;;;;5052640;27;99639;-72
2021/12/28 10:40:44;;;;;;;8.85;7.53;;;;;;;;;;5053066;27;98423;-71
2021/12/28 10:43:12;;;;;;;8.07;7.28;;;;;;;;;;5055002;27;99759;-71
2021/12/28 10:45:43;;;;;;;9.05;8.00;;;;;;;;;;5053113;27;98321;-72
2021/12/28 10:48:12;;;;;;;11.15;8.82;;;;;;;;;;5035260;27;99906;-71
2021/12/28 10:50:43;;;;;;;10.05;7.80;;;;;;;;;;5052391;27;99769;-71
2021/12/28 10:53:13;;;;;;;12.30;8.55;;;;;;;;;;5052773;27;98454;-72
2021/12/28 10:55:41;;;;;;;8.52;7.72;;;;;;;;;;5052127;27;99484;-73
2021/12/28 10:58:07;;;;;;;9.75;8.07;;;;;;;;;;5052314;27;99561;-72
2021/12/28 11:00:42;;;;;;;8.65;7.75;;;;;;;;;;5053067;27;97588;-72
2021/12/28 11:03:28;;;;;;;8.27;7.45;;;;;;;;;;5052719;27;98929;-72
2021/12/28 11:05:56;;;;;;;9.38;7.35;;;;;;;;;;5055454;27;98705;-73
2021/12/28 11:08:24;;;;;;;8.25;7.43;;;;;;;;;;5037025;27;99779;-71
2021/12/28 11:10:52;;;;;;;8.02;7.35;;;;;;;;;;5055439;27;99553;-72
2021/12/28 11:13:24;;;;;;;7.95;7.25;;;;;;;;;;5056079;27;98250;-72
2021/12/28 11:15:51;;;;;;;7.03;6.30;;;;;;;;;;5055819;27;98932;-73
2021/12/28 11:18:51;;;;;;;7.10;6.50;;;;;;;;;;5055743;27;99492;-72
2021/12/28 11:21:28;;;;;;;7.00;6.32;;;;;;;;;;5021835;27;98490;-73
2021/12/28 11:23:56;;;;;;;8.25;7.05;;;;;;;;;;5055958;27;99370;-72
2021/12/28 11:26:26;;;;;;;8.07;6.10;;;;;;;;;;5056616;27;98798;-71
2021/12/28 11:29:01;;;;;;;6.10;5.70;;;;;;;;;;5043438;27;99344;-73
2021/12/28 11:31:28;;;;;;;6.20;5.55;;;;;;;;;;5056316;27;99850;-71
2021/12/28 11:33:58;;;;;;;6.50;5.40;;;;;;;;;;5058423;27;99210;-71
2021/12/28 11:36:27;;;;;;;5.65;5.25;;;;;;;;;;5058618;27;100269;-72
2021/12/28 11:38:54;;;;;;;5.75;5.35;;;;;;;;;;5057510;27;99673;-71
2021/12/28 11:41:20;;;;;;;6.18;5.57;;;;;;;;;;5057699;27;98338;-71
2021/12/28 11:43:47;;;;;;;6.13;5.60;;;;;;;;;;5055650;27;99356;-71
2021/12/28 11:46:14;;;;;;;6.00;5.43;;;;;;;;;;5055348;27;99571;-71
2021/12/28 11:48:42;;;;;;;6.90;5.00;;;;;;;;;;5055852;27;98214;-72
2021/12/28 11:51:08;;;;;;;5.60;5.20;;;;;;;;;;5059185;27;99038;-72
2021/12/28 11:53:36;;;;;;;5.13;4.63;;;;;;;;;;5055748;27;98323;-69
2021/12/28 11:56:03;;;;;;;5.22;4.82;;;;;;;;;;5055518;27;99664;-71
2021/12/28 11:58:48;;;;;;;5.55;5.15;;;;;;;;;;5054669;27;100609;-71
2021/12/28 12:01:33;;;;;;;5.43;4.90;;;;;;;;;;5055701;27;98465;-72
2021/12/28 12:04:01;;;;;;;5.53;5.10;;;;;;;;;;5055659;27;98735;-72
2021/12/28 12:06:46;;;;;;;5.78;5.22;;;;;;;;;;5036998;27;100368;-72
2021/12/28 12:09:12;;;;;;;6.10;5.50;;;;;;;;;;5055492;27;98501;-73
2021/12/28 12:12:07;;;;;;;15.25;5.53;;;;;;;;;;5058247;27;99645;-72
2021/12/28 12:14:52;;;;;;;6.43;5.78;;;;;;;;;;5054355;27;98423;-73
2021/12/28 12:17:28;;;;;;;8.70;5.80;;;;;;;;;;5055564;27;99656;-73
2021/12/28 12:19:55;;;;;;;5.78;5.22;;;;;;;;;;5054870;27;99740;-73
2021/12/28 12:22:44;;;;;;;5.28;4.88;;;;;;;;;;5054948;27;98461;-73
2021/12/28 12:25:12;;;;;;;3.78;3.53;;;;;;;;;;5054604;27;99734;-74
2021/12/28 12:27:39;;;;;;;2.42;2.22;;;;;;;;;;5054293;27;99847;-73
2021/12/28 12:30:18;;;;;;;2.50;2.30;;;;;;;;;;5055072;27;98450;-73
2021/12/28 12:33:04;;;;;;;3.53;1.65;;;;;;;;;;5054801;27;99513;-72
2021/12/28 12:35:33;;;;;;;7.45;2.42;;;;;;;;;;5057724;27;99953;-73
2021/12/28 12:38:02;;;;;;;4.53;1.50;;;;;;;;;;5054404;27;99356;-72
2021/12/28 12:40:47;;;;;;;3.72;1.25;;;;;;;;;;5054340;27;99707;-74
2021/12/28 12:43:14;;;;;;;6.43;1.38;;;;;;;;;;5055243;27;97716;-72
2021/12/28 12:45:52;;;;;;;5.70;1.35;;;;;;;;;;5054593;27;98716;-72
2021/12/28 12:48:31;;;;;;;7.95;1.67;;;;;;;;;;5053965;27;99622;-72
2021/12/28 12:51:16;;;;;;;8.90;1.70;;;;;;;;;;5054323;27;99074;-72
2021/12/28 12:53:43;;;;;;;12.57;1.90;;;;;;;;;;5054520;27;100506;-71
2021/12/28 12:56:13;;;;;;;13.70;2.17;;;;;;;;;;5054153;27;99643;-72
2021/12/28 12:58:40;;;;;;;12.30;2.50;;;;;;;;;;5057790;27;98433;-72
2021/12/28 13:01:11;;;;;;;;;;;;;;;;;;5054558;27;99795;-72
2021/12/28 13:03:37;;;;;;;11.88;2.03;;;;;;;;;;5053327;27;116806;-72
2021/12/28 13:06:04;;;;;;;12.48;2.35;;;;;;;;;;5054370;27;99502;-72
2021/12/28 13:08:30;;;;;;;14.25;2.70;;;;;;;;;;5054393;27;99015;-72
2021/12/28 13:10:56;;;;;;;18.75;2.47;;;;;;;;;;5054215;27;98524;-72
2021/12/28 13:13:23;;;;;;;26.58;4.13;;;;;;;;;;5053862;27;99455;-73
2021/12/28 13:15:49;;;;;;;26.50;3.33;;;;;;;;;;5053040;27;100444;-73
2021/12/28 13:18:31;;;;;;;;;;;;;;;;;;5054585;27;98326;-73
2021/12/28 13:20:57;;;;;;;38.72;4.22;;;;;;;;;;5056197;27;127615;-72
2021/12/28 13:23:24;;;;;;;24.40;3.75;;;;;;;;;;5054376;27;98700;-72
2021/12/28 13:25:50;;;;;;;29.48;4.85;;;;;;;;;;5053527;27;99135;-72
2021/12/28 13:28:19;;;;;;;31.50;4.43;;;;;;;;;;5053756;27;99736;-73
2021/12/28 13:30:51;;;;;;;28.67;4.80;;;;;;;;;;5053285;27;98414;-73
2021/12/28 13:33:19;;;;;;;40.63;5.38;;;;;;;;;;5054567;27;99493;-72
2021/12/28 13:35:48;;;;;;;37.60;4.57;;;;;;;;;;5053268;27;99035;-72
2021/12/28 13:38:15;;;;;;;26.33;4.80;;;;;;;;;;5053648;27;98460;-73
2021/12/28 13:40:44;;;;;;;34.53;5.38;;;;;;;;;;5053157;27;99673;-74
2021/12/28 13:43:14;;;;;;;40.70;6.22;;;;;;;;;;5056613;27;99883;-74
2021/12/28 13:45:42;;;;;;;42.30;5.65;;;;;;;;;;5053923;27;99693;-72
2021/12/28 13:48:16;;;;;;;41.85;6.28;;;;;;;;;;5053366;27;98803;-72
2021/12/28 13:50:45;;;;;;;36.17;5.85;;;;;;;;;;5053459;27;98395;-74
2021/12/28 13:53:12;;;;;;;40.72;6.32;;;;;;;;;;5053880;27;98893;-74
2021/12/28 13:55:39;;;;;;;33.75;6.22;;;;;;;;;;5053088;27;100523;-74
2021/12/28 13:58:18;;;;;;;35.92;5.50;;;;;;;;;;5054225;27;97509;-73
2021/12/28 14:00:47;;;;;;;43.47;6.38;;;;;;;;;;5053666;27;98921;-74
2021/12/28 14:03:13;;;;;;;34.78;5.47;;;;;;;;;;5052808;27;99816;-74
2021/12/28 14:05:39;;;;;;;37.67;7.22;;;;;;;;;;5055830;27;99106;-73
2021/12/28 14:08:07;;;;;;;40.90;5.43;;;;;;;;;;5053131;27;99699;-74
2021/12/28 14:10:36;;;;;;;34.75;5.53;;;;;;;;;;5064650;27;99520;-75
2021/12/28 14:13:04;;;;;;;40.28;5.47;;;;;;;;;;5075123;27;99532;-73
2021/12/28 14:15:43;;;;;;;37.22;5.20;;;;;;;;;;5073015;27;99590;-73
2021/12/28 14:18:20;;;;;;;37.08;5.38;;;;;;;;;;5073292;27;98327;-73
2021/12/28 14:20:47;;;;;;;31.52;5.10;;;;;;;;;;5073530;27;99728;-73
2021/12/28 14:23:14;;;;;;;34.47;4.80;;;;;;;;;;5073564;27;100131;-73
2021/12/28 14:25:40;;;;;;;38.67;5.50;;;;;;;;;;5076373;27;98409;-72
2021/12/28 14:28:06;;;;;;;38.72;6.00;;;;;;;;;;5073270;27;99735;-73
2021/12/28 14:30:33;;;;;;;39.65;5.22;;;;;;;;;;5072360;27;99146;-71
2021/12/28 14:32:59;;;;;;;24.85;4.60;;;;;;;;;;5073576;27;100804;-74
2021/12/28 14:35:27;;;;;;;41.38;4.90;;;;;;;;;;5072857;27;100138;-74
2021/12/28 14:37:54;;;;;;;31.33;4.78;;;;;;;;;;5073355;27;98299;-74
2021/12/28 14:40:22;;;;;;;28.10;5.30;;;;;;;;;;5073731;27;99647;-74